createdAt,value
2023-04-26T00:01:10.798Z,4.50
2023-04-26T00:03:39.955Z,4.30
2023-04-26T00:06:08.264Z,4.40
2023-04-26T00:08:38.430Z,3.80
2023-04-26T00:11:04.920Z,4.00
2023-04-26T00:13:31.481Z,3.70
2023-04-26T00:15:58.083Z,3.80
2023-04-26T00:18:24.714Z,3.60
2023-04-26T00:20:51.327Z,4.10
2023-04-26T00:23:17.899Z,4.50
2023-04-26T00:25:44.356Z,4.10
2023-04-26T00:28:10.929Z,3.80
2023-04-26T00:30:40.582Z,4.20
2023-04-26T00:33:07.308Z,4.20
2023-04-26T00:35:33.971Z,4.20
2023-04-26T00:38:00.590Z,4.40
2023-04-26T00:40:27.157Z,3.90
2023-04-26T00:42:57.590Z,4.50
2023-04-26T00:45:24.226Z,3.90
2023-04-26T00:47:51.090Z,4.60
2023-04-26T00:50:18.385Z,4.00
2023-04-26T00:52:46.655Z,4.10
2023-04-26T00:55:13.880Z,4.10
2023-04-26T00:57:40.732Z,3.80
2023-04-26T01:00:07.919Z,3.80
2023-04-26T01:02:34.817Z,3.70
2023-04-26T01:05:01.649Z,3.80
2023-04-26T01:07:28.328Z,3.90
2023-04-26T01:09:55.972Z,3.70
2023-04-26T01:12:23.680Z,4.00
2023-04-26T01:14:51.194Z,3.40
2023-04-26T01:17:19.371Z,3.50
2023-04-26T01:19:49.534Z,3.40
2023-04-26T01:22:16.114Z,3.70
2023-04-26T01:24:45.712Z,3.60
2023-04-26T01:27:12.303Z,3.70
2023-04-26T01:29:40.925Z,3.70
2023-04-26T01:32:07.437Z,3.60
2023-04-26T01:34:34.100Z,3.50
2023-04-26T01:37:01.000Z,3.40
2023-04-26T01:39:27.840Z,3.90
2023-04-26T01:41:57.855Z,3.50
2023-04-26T01:44:24.321Z,3.20
2023-04-26T01:46:51.885Z,3.50
2023-04-26T01:49:18.445Z,3.20
2023-04-26T01:51:46.963Z,2.30
2023-04-26T01:54:13.497Z,2.80
2023-04-26T01:56:40.015Z,2.80
2023-04-26T01:59:06.624Z,2.50
2023-04-26T02:01:33.147Z,2.60
2023-04-26T02:03:59.657Z,2.50
2023-04-26T02:06:26.184Z,2.80
2023-04-26T02:08:53.629Z,2.50
2023-04-26T02:11:20.724Z,2.60
2023-04-26T02:13:47.257Z,2.50
2023-04-26T02:16:15.768Z,2.80
2023-04-26T02:18:42.226Z,2.40
2023-04-26T02:21:11.055Z,2.90
2023-04-26T02:23:37.825Z,2.60
2023-04-26T02:26:04.551Z,2.70
2023-04-26T02:28:31.491Z,2.90
2023-04-26T02:30:58.118Z,2.70
2023-04-26T02:33:24.962Z,2.80
2023-04-26T02:35:51.549Z,3.10
2023-04-26T02:38:18.825Z,3.10
2023-04-26T02:40:45.416Z,3.10
2023-04-26T02:43:12.393Z,3.00
2023-04-26T02:45:42.579Z,3.50
2023-04-26T02:48:10.606Z,3.30
2023-04-26T02:50:37.371Z,3.00
2023-04-26T02:53:04.478Z,3.40
2023-04-26T02:55:31.644Z,3.00
2023-04-26T02:57:58.174Z,3.10
2023-04-26T03:00:25.546Z,3.20
2023-04-26T03:02:52.622Z,2.60
2023-04-26T03:05:19.501Z,3.20
2023-04-26T03:07:46.237Z,3.20
2023-04-26T03:10:13.140Z,3.60
2023-04-26T03:12:40.363Z,3.70
2023-04-26T03:15:07.329Z,3.90
2023-04-26T03:17:34.920Z,3.30
2023-04-26T03:20:02.853Z,2.90
2023-04-26T03:22:29.900Z,3.10
2023-04-26T03:24:56.393Z,3.10
2023-04-26T03:27:23.407Z,3.10
2023-04-26T03:29:53.258Z,3.60
2023-04-26T03:32:20.019Z,2.90
2023-04-26T03:34:48.049Z,3.30
2023-04-26T03:37:15.062Z,3.40
2023-04-26T03:39:43.140Z,3.20
2023-04-26T03:42:09.703Z,3.70
2023-04-26T03:44:36.628Z,3.20
2023-04-26T03:47:04.536Z,4.00
2023-04-26T03:49:31.915Z,3.40
2023-04-26T03:51:58.456Z,3.00
2023-04-26T03:54:25.109Z,3.00
2023-04-26T03:56:52.474Z,3.60
2023-04-26T03:59:20.119Z,3.90
2023-04-26T04:01:47.503Z,3.50
2023-04-26T04:04:14.307Z,2.70
2023-04-26T04:06:41.392Z,2.90
2023-04-26T04:09:08.435Z,3.30
2023-04-26T04:11:34.972Z,3.40
2023-04-26T04:14:02.258Z,3.00
2023-04-26T04:16:29.046Z,3.50
2023-04-26T04:18:56.029Z,4.50
2023-04-26T04:21:22.521Z,3.40
2023-04-26T04:23:49.537Z,3.60
2023-04-26T04:26:16.743Z,3.70
2023-04-26T04:28:44.844Z,3.20
2023-04-26T04:31:12.313Z,3.50
2023-04-26T04:33:39.042Z,3.50
2023-04-26T04:36:07.610Z,3.60
2023-04-26T04:38:35.199Z,3.90
2023-04-26T04:41:03.972Z,3.80
2023-04-26T04:43:30.680Z,3.20
2023-04-26T04:45:57.841Z,3.50
2023-04-26T04:48:24.420Z,3.30
2023-04-26T04:50:51.099Z,4.10
2023-04-26T04:53:18.030Z,4.00
2023-04-26T04:55:44.783Z,3.40
2023-04-26T04:58:14.137Z,3.50
2023-04-26T05:00:41.019Z,3.50
2023-04-26T05:03:19.669Z,3.40
2023-04-26T05:05:46.930Z,5.00
2023-04-26T05:08:14.452Z,4.30
2023-04-26T05:10:41.022Z,4.50
2023-04-26T05:13:07.544Z,7.30
2023-04-26T05:15:34.109Z,5.00
2023-04-26T05:18:00.762Z,3.30
2023-04-26T05:20:28.824Z,3.50
2023-04-26T05:22:55.489Z,2.70
2023-04-26T05:25:22.791Z,3.00
2023-04-26T05:27:54.068Z,2.10
2023-04-26T05:30:46.796Z,3.10
2023-04-26T05:33:33.639Z,3.50
2023-04-26T05:36:15.387Z,3.80
2023-04-26T05:38:41.976Z,2.70
2023-04-26T05:41:09.897Z,4.30
2023-04-26T05:43:37.234Z,2.60
2023-04-26T05:46:05.421Z,2.50
2023-04-26T05:48:31.981Z,2.90
2023-04-26T05:50:58.513Z,2.40
2023-04-26T05:53:25.229Z,2.40
2023-04-26T05:55:52.018Z,3.80
2023-04-26T05:58:18.546Z,2.20
2023-04-26T06:00:45.801Z,2.20
2023-04-26T06:03:12.908Z,2.40
2023-04-26T06:05:40.513Z,2.20
2023-04-26T06:08:07.402Z,2.30
2023-04-26T06:10:35.673Z,3.30
2023-04-26T06:13:02.211Z,2.40
2023-04-26T06:15:31.014Z,2.70
2023-04-26T06:17:58.915Z,3.70
2023-04-26T06:20:25.667Z,2.70
2023-04-26T06:22:52.159Z,2.30
2023-04-26T06:25:18.703Z,2.50
2023-04-26T06:27:46.106Z,4.50
2023-04-26T06:30:13.657Z,4.20
2023-04-26T06:32:43.233Z,2.40
2023-04-26T06:35:10.213Z,1.80
2023-04-26T06:37:37.020Z,2.80
2023-04-26T06:40:04.434Z,3.00
2023-04-26T06:42:31.409Z,3.00
2023-04-26T06:45:21.350Z,3.00
2023-04-26T06:47:52.426Z,2.90
2023-04-26T06:50:19.271Z,2.10
2023-04-26T06:52:45.749Z,3.00
2023-04-26T06:55:12.268Z,2.10
2023-04-26T06:57:38.741Z,2.10
2023-04-26T07:00:06.080Z,2.70
2023-04-26T07:02:32.710Z,2.10
2023-04-26T07:04:59.581Z,2.20
2023-04-26T07:07:26.709Z,2.50
2023-04-26T07:09:53.362Z,2.20
2023-04-26T07:12:20.425Z,1.60
2023-04-26T07:14:46.929Z,2.50
2023-04-26T07:17:13.393Z,2.70
2023-04-26T07:19:40.128Z,3.20
2023-04-26T07:22:06.727Z,1.90
2023-04-26T07:24:33.218Z,1.80
2023-04-26T07:27:01.351Z,1.50
2023-04-26T07:29:28.222Z,1.80
2023-04-26T07:31:56.309Z,1.70
2023-04-26T07:34:22.849Z,2.40
2023-04-26T07:36:49.463Z,2.30
2023-04-26T07:39:15.990Z,3.10
2023-04-26T07:41:43.841Z,2.30
2023-04-26T07:44:10.800Z,1.70
2023-04-26T07:53:22.241Z,2.20
2023-04-26T07:55:51.004Z,2.00
2023-04-26T07:58:18.702Z,1.70
2023-04-26T08:00:45.353Z,1.40
2023-04-26T08:03:15.973Z,1.90
2023-04-26T08:05:43.535Z,2.10
2023-04-26T08:08:10.418Z,1.60
2023-04-26T08:10:40.888Z,1.40
2023-04-26T08:13:07.714Z,1.90
2023-04-26T08:15:34.308Z,1.70
2023-04-26T08:18:01.314Z,1.70
2023-04-26T08:20:27.874Z,1.70
2023-04-26T08:22:56.332Z,1.30
2023-04-26T08:25:23.980Z,1.70
2023-04-26T08:27:51.796Z,1.80
2023-04-26T08:30:19.223Z,1.80
2023-04-26T08:32:45.806Z,1.70
2023-04-26T08:35:12.760Z,1.30
2023-04-26T08:37:39.321Z,1.70
2023-04-26T08:40:09.977Z,1.80
2023-04-26T08:42:43.728Z,1.90
2023-04-26T08:45:11.035Z,1.90
2023-04-26T08:47:47.059Z,1.70
2023-04-26T08:50:15.624Z,1.70
2023-04-26T08:52:43.852Z,1.60
2023-04-26T08:55:12.263Z,1.90
2023-04-26T08:57:42.886Z,1.40
2023-04-26T09:00:12.819Z,1.50
2023-04-26T09:02:42.336Z,1.90
2023-04-26T09:05:10.114Z,1.90
2023-04-26T09:07:42.333Z,1.50
2023-04-26T09:10:10.532Z,1.50
2023-04-26T09:12:37.886Z,1.50
2023-04-26T09:15:09.732Z,2.30
2023-04-26T09:17:41.152Z,1.60
2023-04-26T09:20:25.048Z,1.60
2023-04-26T09:25:29.556Z,1.90
2023-04-26T09:27:56.850Z,2.20
2023-04-26T09:30:23.909Z,2.50
2023-04-26T09:32:54.177Z,1.80
2023-04-26T09:35:27.374Z,2.10
2023-04-26T09:38:01.068Z,1.60
2023-04-26T09:40:42.247Z,1.90
2023-04-26T09:43:22.041Z,1.50
2023-04-26T09:45:56.904Z,2.70
2023-04-26T09:48:29.901Z,1.40
2023-04-26T09:50:59.287Z,2.00
2023-04-26T09:53:28.226Z,2.00
2023-04-26T09:55:56.246Z,1.70
2023-04-26T09:58:23.465Z,2.40
2023-04-26T10:00:51.549Z,2.00
2023-04-26T10:03:20.277Z,1.90
2023-04-26T10:05:47.468Z,1.50
2023-04-26T10:08:14.506Z,1.70
2023-04-26T10:10:42.065Z,1.70
2023-04-26T10:13:10.446Z,1.30
2023-04-26T10:15:38.997Z,1.60
2023-04-26T10:18:06.229Z,1.10
2023-04-26T10:20:34.734Z,1.60
2023-04-26T10:23:03.017Z,2.50
2023-04-26T10:25:37.531Z,1.40
2023-04-26T10:28:05.111Z,1.60
2023-04-26T10:30:32.260Z,2.30
2023-04-26T10:32:58.827Z,3.80
2023-04-26T10:35:30.285Z,1.40
2023-04-26T10:37:59.849Z,1.70
2023-04-26T10:40:34.778Z,1.50
2023-04-26T10:43:10.773Z,1.20
2023-04-26T10:45:38.868Z,2.00
2023-04-26T10:48:41.205Z,1.50
2023-04-26T10:51:07.941Z,1.20
2023-04-26T10:53:43.363Z,1.80
2023-04-26T10:56:10.268Z,1.60
2023-04-26T10:58:40.890Z,1.40
2023-04-26T11:01:15.851Z,1.50
2023-04-26T11:03:58.391Z,1.90
2023-04-26T11:06:29.107Z,1.80
2023-04-26T11:08:55.813Z,1.50
2023-04-26T11:11:26.310Z,1.50
2023-04-26T11:13:52.846Z,1.70
2023-04-26T11:16:19.513Z,2.00
2023-04-26T11:18:47.189Z,1.70
2023-04-26T11:21:17.175Z,1.10
2023-04-26T11:23:54.262Z,1.00
2023-04-26T11:26:21.422Z,1.50
2023-04-26T11:28:48.497Z,1.30
2023-04-26T11:31:15.451Z,1.10
2023-04-26T11:33:42.012Z,1.30
2023-04-26T11:36:09.252Z,1.70
2023-04-26T11:38:37.381Z,1.70
2023-04-26T11:41:04.016Z,1.60
2023-04-26T11:43:38.155Z,1.40
2023-04-26T11:46:06.982Z,1.60
2023-04-26T11:48:35.949Z,2.10
2023-04-26T11:51:04.388Z,2.20
2023-04-26T11:53:36.865Z,1.50
2023-04-26T11:56:12.608Z,1.50
2023-04-26T11:58:39.215Z,1.60
2023-04-26T12:01:05.699Z,3.60
2023-04-26T12:03:34.622Z,1.50
2023-04-26T12:06:01.686Z,1.80
2023-04-26T12:08:28.305Z,1.40
2023-04-26T12:11:00.471Z,1.80
2023-04-26T12:13:28.943Z,1.30
2023-04-26T12:15:55.673Z,1.40
2023-04-26T12:18:29.735Z,2.20
2023-04-26T12:20:58.693Z,1.10
2023-04-26T12:23:25.925Z,1.40
2023-04-26T12:25:59.862Z,2.00
2023-04-26T12:28:26.394Z,2.00
2023-04-26T12:30:52.904Z,1.10
2023-04-26T12:33:22.236Z,2.30
2023-04-26T12:35:49.652Z,2.10
2023-04-26T12:38:17.516Z,2.10
2023-04-26T12:40:44.622Z,1.90
2023-04-26T12:43:11.612Z,2.70
2023-04-26T12:45:38.185Z,2.10
2023-04-26T12:48:05.821Z,2.00
2023-04-26T12:50:32.438Z,1.30
2023-04-26T12:52:58.987Z,1.30
2023-04-26T12:55:26.121Z,2.00
2023-04-26T12:57:52.673Z,1.20
2023-04-26T13:00:20.887Z,1.60
2023-04-26T13:02:47.875Z,1.40
2023-04-26T13:05:14.595Z,1.80
2023-04-26T13:07:42.790Z,2.00
2023-04-26T13:10:12.463Z,1.40
2023-04-26T13:12:39.948Z,2.10
2023-04-26T13:15:07.372Z,2.00
2023-04-26T13:17:35.531Z,1.50
2023-04-26T13:20:03.986Z,1.70
2023-04-26T13:22:30.858Z,1.30
2023-04-26T13:24:57.415Z,1.70
2023-04-26T13:27:24.056Z,1.60
2023-04-26T13:29:51.733Z,1.90
2023-04-26T13:32:18.351Z,2.00
2023-04-26T13:34:45.153Z,1.90
2023-04-26T13:37:11.855Z,1.60
2023-04-26T13:39:38.384Z,2.50
2023-04-26T13:42:05.460Z,5.70
2023-04-26T13:44:31.973Z,6.30
2023-04-26T13:47:00.130Z,1.90
2023-04-26T13:49:26.719Z,1.70
2023-04-26T13:51:53.419Z,1.50
2023-04-26T13:54:25.176Z,1.40
2023-04-26T13:56:52.891Z,1.70
2023-04-26T13:59:20.075Z,2.20
2023-04-26T14:01:46.788Z,1.50
2023-04-26T14:04:13.720Z,2.00
2023-04-26T14:06:40.819Z,1.40
2023-04-26T14:09:08.125Z,1.50
2023-04-26T14:11:35.008Z,2.30
2023-04-26T14:14:01.769Z,2.10
2023-04-26T14:16:28.372Z,2.00
2023-04-26T14:18:54.977Z,2.30
2023-04-26T14:21:21.659Z,1.60
2023-04-26T14:23:48.616Z,1.90
2023-04-26T14:26:15.909Z,1.70
2023-04-26T14:28:42.434Z,2.00
2023-04-26T14:31:08.987Z,1.70
2023-04-26T14:33:35.638Z,1.20
2023-04-26T14:36:02.455Z,1.70
2023-04-26T14:38:29.010Z,1.50
2023-04-26T14:40:55.944Z,2.10
2023-04-26T14:43:23.225Z,2.10
2023-04-26T14:45:50.246Z,1.90
2023-04-26T14:48:17.286Z,2.00
2023-04-26T14:50:44.172Z,2.80
2023-04-26T14:53:10.908Z,2.30
2023-04-26T14:55:37.488Z,2.50
2023-04-26T14:58:04.122Z,1.80
2023-04-26T15:00:30.825Z,1.80
2023-04-26T15:02:57.615Z,1.80
2023-04-26T15:05:24.462Z,2.00
2023-04-26T15:07:51.487Z,2.40
2023-04-26T15:10:18.310Z,2.10
2023-04-26T15:12:45.236Z,1.80
2023-04-26T15:15:11.767Z,2.10
2023-04-26T15:17:38.344Z,1.80
2023-04-26T15:20:05.671Z,2.00
2023-04-26T15:22:33.396Z,2.10
2023-04-26T15:24:59.976Z,2.10
2023-04-26T15:27:26.522Z,3.00
2023-04-26T15:29:53.129Z,2.80
2023-04-26T15:32:19.741Z,2.50
2023-04-26T15:34:47.026Z,4.40
2023-04-26T15:37:13.558Z,5.20
2023-04-26T15:39:40.107Z,3.00
2023-04-26T15:42:06.626Z,4.70
2023-04-26T15:44:33.192Z,3.50
2023-04-26T15:47:03.188Z,4.90
2023-04-26T15:49:30.250Z,6.30
2023-04-26T15:51:56.895Z,4.20
2023-04-26T15:54:23.733Z,2.90
2023-04-26T15:56:50.315Z,2.70
2023-04-26T15:59:16.982Z,1.80
2023-04-26T16:01:43.631Z,3.00
2023-04-26T16:04:11.259Z,9.00
2023-04-26T16:06:38.073Z,4.00
2023-04-26T16:09:17.274Z,3.60
2023-04-26T16:11:50.584Z,2.70
2023-04-26T16:14:17.208Z,4.10
2023-04-26T16:16:45.212Z,4.00
2023-04-26T16:19:11.835Z,4.40
2023-04-26T16:21:39.599Z,5.30
2023-04-26T16:24:08.304Z,5.10
2023-04-26T16:26:35.018Z,2.50
2023-04-26T16:29:03.343Z,2.70
2023-04-26T16:31:31.620Z,5.30
2023-04-26T16:33:58.755Z,3.00
2023-04-26T16:36:26.598Z,3.20
2023-04-26T16:38:53.754Z,2.20
2023-04-26T16:41:20.561Z,3.00
2023-04-26T16:43:47.171Z,3.30
2023-04-26T16:46:14.223Z,4.10
2023-04-26T16:48:40.811Z,3.40
2023-04-26T16:51:07.820Z,3.60
2023-04-26T16:53:35.184Z,3.00
2023-04-26T16:56:01.836Z,4.30
2023-04-26T16:58:28.382Z,4.70
2023-04-26T17:00:55.717Z,3.70
2023-04-26T17:03:23.796Z,4.20
2023-04-26T17:05:50.891Z,4.90
2023-04-26T17:08:18.610Z,4.20
2023-04-26T17:10:46.278Z,7.10
2023-04-26T17:13:13.190Z,6.60
2023-04-26T17:15:40.976Z,6.00
2023-04-26T17:18:08.833Z,6.40
2023-04-26T17:20:36.031Z,5.00
2023-04-26T17:23:03.677Z,3.80
2023-04-26T17:25:30.591Z,4.40
2023-04-26T17:27:57.277Z,4.00
2023-04-26T17:30:23.846Z,3.30
2023-04-26T17:32:50.837Z,4.90
2023-04-26T17:35:17.560Z,4.20
2023-04-26T17:37:49.202Z,4.20
2023-04-26T17:40:17.181Z,3.90
2023-04-26T17:42:44.296Z,4.40
2023-04-26T17:45:13.918Z,4.30
2023-04-26T17:47:42.143Z,2.70
2023-04-26T17:50:08.956Z,3.90
2023-04-26T17:52:36.217Z,3.20
2023-04-26T17:55:09.158Z,3.10
2023-04-26T17:57:36.288Z,3.40
2023-04-26T18:00:03.628Z,3.40
2023-04-26T18:02:35.664Z,3.00
2023-04-26T18:05:03.919Z,2.80
2023-04-26T18:07:30.938Z,3.70
2023-04-26T18:09:57.460Z,3.60
2023-04-26T18:12:24.813Z,4.10
2023-04-26T18:14:51.540Z,5.60
2023-04-26T18:17:18.225Z,4.40
2023-04-26T18:19:44.938Z,7.40
2023-04-26T18:22:11.517Z,7.90
2023-04-26T18:24:38.321Z,13.30
2023-04-26T18:27:05.569Z,14.90
2023-04-26T18:29:32.197Z,15.20
2023-04-26T18:31:58.764Z,14.90
2023-04-26T18:34:25.583Z,11.50
2023-04-26T18:36:52.165Z,6.70
2023-04-26T18:39:18.685Z,6.20
2023-04-26T18:41:45.305Z,6.70
2023-04-26T18:44:14.938Z,6.10
2023-04-26T18:46:42.443Z,9.20
2023-04-26T18:49:09.615Z,8.40
2023-04-26T18:51:36.381Z,8.50
2023-04-26T18:54:03.267Z,10.80
2023-04-26T18:56:30.851Z,7.80
2023-04-26T18:58:57.653Z,7.90
2023-04-26T19:01:24.245Z,8.30
2023-04-26T19:03:51.014Z,7.60
2023-04-26T19:06:17.780Z,9.80
2023-04-26T19:08:44.782Z,11.00
2023-04-26T19:11:11.964Z,8.30
2023-04-26T19:13:39.605Z,10.10
2023-04-26T19:16:07.468Z,8.80
2023-04-26T19:18:39.782Z,7.20
2023-04-26T19:21:07.692Z,6.70
2023-04-26T19:23:35.356Z,7.90
2023-04-26T19:26:07.363Z,8.10
2023-04-26T19:28:35.218Z,9.10
2023-04-26T19:31:01.875Z,9.30
2023-04-26T19:33:28.828Z,9.70
2023-04-26T19:35:56.049Z,12.00
2023-04-26T19:38:23.613Z,8.20
2023-04-26T19:40:50.906Z,7.90
2023-04-26T19:43:17.860Z,8.40
2023-04-26T19:45:44.936Z,8.60
2023-04-26T19:48:12.590Z,8.10
2023-04-26T19:50:43.889Z,9.60
2023-04-26T19:53:12.534Z,9.60
2023-04-26T19:55:40.462Z,8.60
2023-04-26T19:58:07.816Z,14.10
2023-04-26T20:00:38.319Z,13.00
2023-04-26T20:03:05.626Z,11.90
2023-04-26T20:05:32.893Z,15.90
2023-04-26T20:07:59.537Z,11.30
2023-04-26T20:10:29.677Z,11.30
2023-04-26T20:12:56.359Z,17.90
2023-04-26T20:15:23.525Z,13.90
2023-04-26T20:17:50.141Z,10.90
2023-04-26T20:20:16.759Z,11.20
2023-04-26T20:22:43.283Z,11.70
2023-04-26T20:25:10.191Z,9.20
2023-04-26T20:27:36.748Z,9.70
2023-04-26T20:30:03.678Z,8.90
2023-04-26T20:32:30.192Z,9.00
2023-04-26T20:34:56.766Z,9.00
2023-04-26T20:37:23.446Z,7.80
2023-04-26T20:39:50.087Z,8.30
2023-04-26T20:42:16.626Z,9.50
2023-04-26T20:44:43.274Z,10.60
2023-04-26T20:47:09.944Z,9.20
2023-04-26T20:49:36.667Z,8.10
2023-04-26T20:52:03.487Z,6.80
2023-04-26T20:54:30.933Z,7.10
2023-04-26T20:56:57.661Z,7.10
2023-04-26T20:59:25.345Z,6.80
2023-04-26T21:01:52.985Z,7.70
2023-04-26T21:04:19.910Z,9.80
2023-04-26T21:06:46.699Z,11.10
2023-04-26T21:09:13.229Z,12.40
2023-04-26T21:11:39.885Z,13.80
2023-04-26T21:14:06.508Z,11.90
2023-04-26T21:16:33.165Z,11.50
2023-04-26T21:18:59.868Z,11.10
2023-04-26T21:21:28.388Z,10.70
2023-04-26T21:23:54.977Z,10.40
2023-04-26T21:26:21.577Z,11.00
2023-04-26T21:28:48.163Z,12.10
2023-04-26T21:31:14.973Z,10.20
2023-04-26T21:33:41.578Z,9.00
2023-04-26T21:36:08.510Z,7.20
2023-04-26T21:38:35.216Z,7.50
2023-04-26T21:41:01.809Z,7.30
2023-04-26T21:43:28.496Z,6.50
2023-04-26T21:45:57.189Z,7.30
2023-04-26T21:48:24.327Z,7.00
2023-04-26T21:50:50.932Z,6.60
2023-04-26T21:53:17.698Z,6.00
2023-04-26T21:55:50.849Z,5.80
2023-04-26T21:58:18.601Z,5.80
2023-04-26T22:00:46.025Z,6.30
2023-04-26T22:03:13.627Z,7.40
2023-04-26T22:05:40.310Z,7.30
2023-04-26T22:08:06.856Z,7.40
2023-04-26T22:10:33.855Z,8.90
2023-04-26T22:13:00.547Z,9.00
2023-04-26T22:15:27.393Z,9.10
2023-04-26T22:17:53.947Z,8.20
2023-04-26T22:20:20.918Z,8.90
2023-04-26T22:22:47.541Z,8.80
2023-04-26T22:25:14.038Z,10.10
2023-04-26T22:27:40.547Z,9.10
2023-04-26T22:30:22.962Z,9.30
2023-04-26T22:32:53.480Z,10.10
2023-04-26T22:35:20.982Z,10.10
2023-04-26T22:37:47.616Z,8.80
2023-04-26T22:40:15.524Z,9.30
2023-04-26T22:42:42.717Z,9.30
2023-04-26T22:45:10.785Z,10.00
2023-04-26T22:47:38.090Z,9.70
2023-04-26T22:50:05.407Z,10.70
2023-04-26T22:52:32.438Z,9.40
2023-04-26T22:55:00.060Z,10.20
2023-04-26T22:57:28.127Z,11.30
2023-04-26T22:59:54.732Z,9.70
2023-04-26T23:02:21.442Z,9.40
2023-04-26T23:04:48.354Z,9.00
2023-04-26T23:07:15.736Z,9.50
2023-04-26T23:09:42.303Z,9.20
2023-04-26T23:12:09.252Z,9.20
2023-04-26T23:14:35.841Z,8.30
2023-04-26T23:17:02.633Z,8.30
2023-04-26T23:19:29.341Z,8.30
2023-04-26T23:21:55.913Z,8.00
2023-04-26T23:24:22.524Z,7.10
2023-04-26T23:26:49.062Z,8.40
2023-04-26T23:29:15.653Z,8.20
2023-04-26T23:31:42.434Z,7.60
2023-04-26T23:34:09.143Z,7.80
2023-04-26T23:36:35.782Z,8.50
2023-04-26T23:39:03.134Z,8.60
2023-04-26T23:41:29.699Z,9.00
2023-04-26T23:43:56.228Z,7.90
2023-04-26T23:46:22.883Z,8.90
2023-04-26T23:48:49.835Z,8.90
2023-04-26T23:51:16.661Z,8.40
2023-04-26T23:53:44.232Z,8.00
2023-04-26T23:56:10.809Z,8.00
2023-04-26T23:58:37.351Z,8.70
